Time;durP1;ratioP1;P1;durP2;ratioP2;P2;SDS_P1;SDS_P2;PMS_P1;PMS_P2;Temp;Humidity;BMP_temperature;BMP_pressure;BME280_temperature;BME280_humidity;BME280_pressure;Samples;Min_cycle;Max_cycle;Signal;HPM_P1;HPM_P2
2021/06/30 00:02:17;;;;;;;2.88;0.60;;;;;;;13.62;100.00;96612.06;4994737;28;20049;-65
2021/06/30 00:04:43;;;;;;;0.73;0.50;;;;;;;13.66;100.00;96610.09;4998100;28;20053;-64
2021/06/30 00:07:09;;;;;;;1.88;0.50;;;;;;;13.40;99.99;96616.72;5015690;28;20800;-64
2021/06/30 00:09:35;;;;;;;1.45;0.50;;;;;;;13.56;100.00;96608.13;5019817;28;20049;-64
2021/06/30 00:12:00;;;;;;;2.25;0.50;;;;;;;13.35;100.00;96606.09;5021496;28;20042;-64
2021/06/30 00:14:26;;;;;;;0.80;0.70;;;;;;;13.33;100.00;96611.97;5015737;28;20048;-65
2021/06/30 00:16:52;;;;;;;0.90;0.43;;;;;;;13.18;100.00;96605.59;5022290;28;20429;-69
2021/06/30 00:19:18;;;;;;;0.98;0.82;;;;;;;13.12;100.00;96615.38;5015419;28;20049;-67
2021/06/30 00:21:44;;;;;;;2.97;0.60;;;;;;;12.96;100.00;96609.41;4998422;28;20069;-66
2021/06/30 00:24:10;;;;;;;1.50;0.40;;;;;;;13.04;100.00;96619.28;4998151;28;20135;-65
2021/06/30 00:26:37;;;;;;;1.90;0.50;;;;;;;13.01;100.00;96615.31;5002460;28;20076;-66
2021/06/30 00:29:06;;;;;;;0.60;0.40;;;;;;;12.97;100.00;96627.47;5000130;28;20479;-69
2021/06/30 00:31:33;;;;;;;0.88;0.50;;;;;;;12.97;100.00;96639.25;5003793;28;20054;-65
2021/06/30 00:34:02;;;;;;;1.35;0.90;;;;;;;12.89;100.00;96645.09;4982413;28;20046;-67
2021/06/30 00:36:36;;;;;;;4.75;0.73;;;;;;;12.90;100.00;96646.69;4996083;28;20478;-65
2021/06/30 00:39:05;;;;;;;1.15;0.50;;;;;;;12.92;100.00;96634.13;4985871;28;20076;-67
2021/06/30 00:41:32;;;;;;;;;;;;;;;12.79;100.00;96661.13;5014993;28;20448;-68
2021/06/30 00:43:57;;;;;;;2.20;0.40;;;;;;;12.79;100.00;96655.63;5008172;28;19970;-66
2021/06/30 00:46:31;;;;;;;2.60;0.50;;;;;;;12.83;100.00;96661.16;5004940;28;20045;-67
2021/06/30 00:48:58;;;;;;;1.00;0.40;;;;;;;12.80;100.00;96659.97;5019980;28;20045;-68
2021/06/30 00:51:24;;;;;;;1.00;0.60;;;;;;;12.75;100.00;96667.78;5048249;23;20282;-66
2021/06/30 00:53:50;;;;;;;1.08;0.43;;;;;;;12.72;100.00;96661.06;5027141;28;20041;-64
2021/06/30 00:56:22;;;;;;;0.30;0.30;;;;;;;12.72;100.00;96668.53;5033155;28;20146;-65
2021/06/30 00:58:51;;;;;;;0.40;0.40;;;;;;;12.76;100.00;96675.63;5042259;28;20045;-65
2021/06/30 01:01:18;;;;;;;0.60;0.50;;;;;;;12.77;100.00;96674.47;5023023;28;20410;-65
2021/06/30 01:03:44;;;;;;;5.15;0.57;;;;;;;12.79;100.00;96676.84;5022967;28;20128;-64
2021/06/30 01:06:10;;;;;;;0.88;0.57;;;;;;;12.82;100.00;96670.59;5000252;28;20624;-65
2021/06/30 01:08:35;;;;;;;0.80;0.40;;;;;;;12.86;100.00;96665.13;5006136;28;20045;-66
2021/06/30 01:11:01;;;;;;;0.85;0.50;;;;;;;12.78;100.00;96672.50;5022980;28;20041;-64
2021/06/30 01:13:27;;;;;;;0.85;0.40;;;;;;;12.84;100.00;96675.69;5016151;28;20286;-65
2021/06/30 01:15:55;;;;;;;1.35;0.50;;;;;;;12.86;100.00;96656.88;5021805;28;20053;-63
2021/06/30 01:18:22;;;;;;;1.30;0.52;;;;;;;13.01;100.00;96684.03;5016272;28;20100;-67
2021/06/30 01:20:48;;;;;;;0.60;0.40;;;;;;;13.14;100.00;96678.22;5023174;28;20049;-65
2021/06/30 01:23:14;;;;;;;1.10;0.47;;;;;;;13.04;100.00;96676.22;5016230;28;20045;-65
2021/06/30 01:25:39;;;;;;;1.65;0.60;;;;;;;13.16;100.00;96686.88;5022152;28;20128;-66
2021/06/30 01:28:05;;;;;;;1.40;0.38;;;;;;;13.21;100.00;96692.03;5016188;28;20556;-64
2021/06/30 01:30:31;;;;;;;0.60;0.40;;;;;;;13.24;100.00;96696.00;5021453;28;20636;-65
2021/06/30 01:32:56;;;;;;;0.57;0.50;;;;;;;13.22;97.55;96684.56;5022252;28;20041;-65
2021/06/30 01:35:23;;;;;;;0.60;0.32;;;;;;;13.14;100.00;96681.78;5016735;28;20783;-65
2021/06/30 01:37:49;;;;;;;0.65;0.50;;;;;;;12.93;100.00;96674.19;5019476;28;20512;-65
2021/06/30 01:40:16;;;;;;;1.27;0.60;;;;;;;12.77;100.00;96659.94;5002922;28;20045;-65
2021/06/30 01:42:46;;;;;;;0.90;0.40;;;;;;;12.57;100.00;96660.19;5004713;28;20114;-65
2021/06/30 01:45:13;;;;;;;0.77;0.30;;;;;;;12.60;100.00;96655.88;5012746;28;20067;-65
2021/06/30 01:47:38;;;;;;;3.10;0.95;;;;;;;12.64;100.00;96670.47;5006721;28;20069;-65
2021/06/30 01:50:05;;;;;;;2.35;1.40;;;;;;;12.67;100.00;96682.63;4997878;28;20077;-63
2021/06/30 01:52:31;;;;;;;3.13;0.40;;;;;;;12.69;99.86;96672.81;5002410;28;20041;-64
2021/06/30 01:54:56;;;;;;;0.70;0.40;;;;;;;12.61;99.93;96674.75;5001315;28;20042;-65
2021/06/30 01:57:22;;;;;;;1.05;0.32;;;;;;;12.66;100.00;96676.34;4997794;28;20445;-65
2021/06/30 01:59:47;;;;;;;0.40;0.30;;;;;;;12.72;100.00;96674.81;5001802;28;20124;-65
2021/06/30 02:02:13;;;;;;;0.82;0.28;;;;;;;12.53;99.66;96664.88;4996870;28;20045;-65
2021/06/30 02:04:39;;;;;;;0.98;0.30;;;;;;;12.67;100.00;96664.19;5003575;28;20041;-65
2021/06/30 02:07:06;;;;;;;0.40;0.40;;;;;;;12.74;100.00;96661.47;5026921;28;20144;-64
2021/06/30 02:09:31;;;;;;;0.47;0.35;;;;;;;12.82;100.00;96662.34;5027735;28;20040;-64
2021/06/30 02:11:58;;;;;;;1.33;0.40;;;;;;;12.88;100.00;96644.31;5024970;28;20056;-65
2021/06/30 02:14:23;;;;;;;0.88;0.40;;;;;;;12.97;100.00;96649.47;5026477;28;20441;-64
2021/06/30 02:16:49;;;;;;;0.50;0.25;;;;;;;12.95;99.50;96649.06;5036523;28;20560;-63
2021/06/30 02:19:14;;;;;;;0.30;0.30;;;;;;;12.92;98.92;96647.84;5003695;28;20554;-64
2021/06/30 02:21:40;;;;;;;0.57;0.50;;;;;;;13.04;99.24;96646.75;5031056;28;20059;-63
2021/06/30 02:24:06;;;;;;;1.60;0.70;;;;;;;13.10;96.28;96645.22;5015811;28;20097;-66
2021/06/30 02:26:34;;;;;;;0.50;0.20;;;;;;;13.10;95.10;96634.22;5020094;28;20508;-63
2021/06/30 02:28:59;;;;;;;1.67;0.30;;;;;;;13.19;93.90;96634.66;5024312;28;20036;-65
2021/06/30 02:31:25;;;;;;;3.25;0.47;;;;;;;13.07;95.98;96626.75;5027491;28;20110;-66
2021/06/30 02:33:51;;;;;;;0.77;0.30;;;;;;;12.99;96.80;96619.63;5038465;28;20068;-65
2021/06/30 02:36:17;;;;;;;1.15;0.40;;;;;;;12.80;96.45;96635.25;5002179;28;20086;-64
2021/06/30 02:38:43;;;;;;;0.88;0.40;;;;;;;12.51;99.05;96633.44;5026413;28;20073;-65
2021/06/30 02:41:08;;;;;;;0.40;0.40;;;;;;;12.34;100.00;96632.94;5033208;28;20068;-65
2021/06/30 02:43:34;;;;;;;1.85;0.40;;;;;;;12.50;100.00;96640.13;5035382;28;20128;-65
2021/06/30 02:45:59;;;;;;;0.30;0.30;;;;;;;12.52;100.00;96637.78;5010815;28;20484;-65
2021/06/30 02:48:25;;;;;;;0.30;0.30;;;;;;;12.32;100.00;96639.97;5018334;28;20056;-65
2021/06/30 02:50:52;;;;;;;2.47;0.43;;;;;;;12.33;100.00;96642.31;5027084;28;20049;-63
2021/06/30 02:53:17;;;;;;;0.43;0.30;;;;;;;12.56;100.00;96644.09;5028449;28;20042;-63
2021/06/30 02:55:43;;;;;;;10.57;2.10;;;;;;;12.66;100.00;96637.88;5032676;28;20107;-63
2021/06/30 02:58:08;;;;;;;9.02;1.98;;;;;;;12.68;100.00;96638.28;5016518;28;20049;-64
2021/06/30 03:00:34;;;;;;;2.00;0.80;;;;;;;12.68;100.00;96637.50;5025418;28;20069;-63
2021/06/30 03:03:00;;;;;;;4.75;0.90;;;;;;;12.63;100.00;96633.16;5025734;28;20041;-63
2021/06/30 03:05:26;;;;;;;2.63;0.80;;;;;;;12.63;100.00;96635.91;5021031;28;20052;-64
2021/06/30 03:07:51;;;;;;;12.45;1.83;;;;;;;12.81;99.45;96636.78;5018387;28;20046;-64
2021/06/30 03:10:18;;;;;;;5.57;0.68;;;;;;;12.82;99.93;96632.88;5015925;28;20038;-63
2021/06/30 03:12:44;;;;;;;1.30;0.60;;;;;;;12.76;100.00;96625.38;5026697;28;20053;-63
2021/06/30 03:15:11;;;;;;;1.05;0.95;;;;;;;12.48;100.00;96615.78;5038038;28;20691;-63
2021/06/30 03:17:37;;;;;;;2.30;0.50;;;;;;;12.24;100.00;96617.13;5033469;28;20116;-63
2021/06/30 03:20:05;;;;;;;2.10;0.45;;;;;;;12.01;100.00;96609.09;5009799;28;20521;-65
2021/06/30 03:22:30;;;;;;;1.40;0.50;;;;;;;11.99;100.00;96605.94;5032136;28;20522;-62
2021/06/30 03:24:56;;;;;;;1.75;0.32;;;;;;;11.88;100.00;96608.53;5040981;28;20045;-65
2021/06/30 03:27:21;;;;;;;3.03;1.35;;;;;;;11.92;100.00;96600.38;5027382;28;20140;-66
2021/06/30 03:29:47;;;;;;;1.17;0.65;;;;;;;11.88;100.00;96603.06;5031526;28;20073;-64
2021/06/30 03:32:12;;;;;;;1.75;0.60;;;;;;;11.87;100.00;96601.50;5019011;28;20040;-64
2021/06/30 03:34:38;;;;;;;1.08;0.57;;;;;;;11.86;100.00;96597.16;5030936;28;20061;-64
2021/06/30 03:37:04;;;;;;;1.52;0.50;;;;;;;11.85;100.00;96607.34;5037190;28;20037;-65
2021/06/30 03:39:29;;;;;;;0.75;0.50;;;;;;;11.88;100.00;96603.06;5028437;28;20046;-64
2021/06/30 03:41:55;;;;;;;2.50;0.47;;;;;;;11.98;100.00;96601.63;5030369;28;20060;-64
2021/06/30 03:44:20;;;;;;;3.70;0.60;;;;;;;12.26;100.00;96603.03;5025905;28;20137;-66
2021/06/30 03:46:46;;;;;;;1.17;0.65;;;;;;;12.03;100.00;96602.06;5041910;28;20044;-64
2021/06/30 03:49:11;;;;;;;1.23;0.50;;;;;;;12.17;100.00;96612.41;5026629;28;20482;-64
2021/06/30 03:51:37;;;;;;;2.28;0.50;;;;;;;12.22;100.00;96608.50;5038863;28;20045;-64
2021/06/30 03:54:03;;;;;;;2.67;0.47;;;;;;;12.18;100.00;96616.69;5031530;28;20494;-66
2021/06/30 03:56:29;;;;;;;0.40;0.40;;;;;;;12.36;100.00;96616.06;5027847;28;20091;-64
2021/06/30 03:58:55;;;;;;;2.67;0.50;;;;;;;12.43;100.00;96613.38;5024261;28;20049;-64
2021/06/30 04:01:24;;;;;;;0.75;0.47;;;;;;;12.45;100.00;96621.25;5036710;28;20049;-65
2021/06/30 04:03:54;;;;;;;2.38;0.60;;;;;;;12.50;100.00;96607.94;5046540;28;20060;-64
2021/06/30 04:06:21;;;;;;;5.03;1.35;;;;;;;12.51;100.00;96598.50;5035315;28;20414;-64
2021/06/30 04:08:48;;;;;;;5.32;0.70;;;;;;;12.55;100.00;96598.53;5035343;28;20147;-64
2021/06/30 04:11:13;;;;;;;2.40;0.50;;;;;;;12.57;100.00;96601.72;5030231;28;20083;-64
2021/06/30 04:13:39;;;;;;;0.60;0.50;;;;;;;12.68;100.00;96612.78;5043632;28;20525;-64
2021/06/30 04:16:04;;;;;;;11.43;2.38;;;;;;;13.00;100.00;96601.97;5031679;28;20052;-65
2021/06/30 04:18:30;;;;;;;0.77;0.40;;;;;;;12.61;100.00;96606.03;5027693;28;20055;-64
2021/06/30 04:20:55;;;;;;;0.75;0.50;;;;;;;12.68;100.00;96610.03;5034009;28;20033;-64
2021/06/30 04:23:20;;;;;;;0.43;0.40;;;;;;;12.87;100.00;96607.00;5029654;28;20382;-64
2021/06/30 04:25:47;;;;;;;2.80;0.45;;;;;;;12.91;100.00;96616.06;5031198;28;20107;-64
2021/06/30 04:28:14;;;;;;;1.05;0.50;;;;;;;12.90;100.00;96610.94;5019741;28;20048;-64
2021/06/30 04:30:41;;;;;;;1.90;0.40;;;;;;;12.74;100.00;96605.75;5027964;28;20570;-64
2021/06/30 04:33:07;;;;;;;0.95;0.40;;;;;;;12.92;100.00;96609.38;5019698;28;20037;-65
2021/06/30 04:35:32;;;;;;;0.57;0.50;;;;;;;12.94;100.00;96607.03;5033926;28;20052;-64
2021/06/30 04:37:57;;;;;;;1.38;0.50;;;;;;;13.05;100.00;96603.56;5042478;28;20045;-64
2021/06/30 04:40:23;;;;;;;1.38;0.65;;;;;;;13.17;100.00;96611.47;5022546;28;20129;-64
2021/06/30 04:42:48;;;;;;;1.83;0.50;;;;;;;13.35;100.00;96609.63;5030685;28;20037;-64
2021/06/30 04:45:14;;;;;;;4.57;0.68;;;;;;;13.35;98.47;96612.38;5028207;28;20045;-64
2021/06/30 04:47:39;;;;;;;0.30;0.30;;;;;;;13.60;96.80;96610.91;5026258;28;20497;-64
2021/06/30 04:50:05;;;;;;;0.95;0.68;;;;;;;13.96;96.08;96606.25;5022634;28;20492;-66
2021/06/30 04:52:30;;;;;;;0.77;0.40;;;;;;;13.96;93.56;96601.53;5028129;28;20049;-65
2021/06/30 04:54:57;;;;;;;0.55;0.30;;;;;;;14.13;91.95;96602.75;5031393;28;20041;-64
2021/06/30 04:57:22;;;;;;;4.15;1.25;;;;;;;14.21;88.61;96597.25;5034334;28;20152;-64
2021/06/30 04:59:48;;;;;;;1.70;0.60;;;;;;;14.42;88.56;96599.19;5033859;28;20473;-64
2021/06/30 05:02:15;;;;;;;2.15;0.30;;;;;;;14.33;87.33;96597.63;5026540;28;20057;-64
2021/06/30 05:04:40;;;;;;;0.98;0.30;;;;;;;14.30;88.15;96595.66;5028522;28;20060;-65
2021/06/30 05:07:05;;;;;;;1.00;0.40;;;;;;;14.55;89.05;96594.88;5036475;28;20497;-63
2021/06/30 05:09:31;;;;;;;2.53;0.80;;;;;;;14.77;86.20;96595.63;5036322;28;20095;-65
2021/06/30 05:11:56;;;;;;;1.30;0.68;;;;;;;14.51;87.22;96594.06;5046844;28;20044;-63
2021/06/30 05:14:22;;;;;;;0.43;0.30;;;;;;;14.69;87.96;96591.31;5018157;28;20063;-63
2021/06/30 05:16:47;;;;;;;0.30;0.22;;;;;;;14.79;86.33;96601.53;5042041;28;20136;-63
2021/06/30 05:19:12;;;;;;;0.65;0.52;;;;;;;14.97;86.54;96595.22;5024271;28;20490;-64
2021/06/30 05:21:38;;;;;;;0.20;0.20;;;;;;;14.91;86.14;96595.63;5036287;28;20040;-64
2021/06/30 05:24:04;;;;;;;1.80;0.28;;;;;;;14.64;86.36;96600.78;5029682;28;20051;-64
2021/06/30 05:26:29;;;;;;;1.38;0.50;;;;;;;14.77;88.10;96608.66;5033696;28;20786;-64
2021/06/30 05:28:54;;;;;;;1.90;0.38;;;;;;;14.70;88.20;96604.69;5022400;28;20476;-64
2021/06/30 05:31:20;;;;;;;1.10;0.30;;;;;;;14.90;88.30;96607.81;5017124;28;20099;-64
2021/06/30 05:33:45;;;;;;;0.60;0.20;;;;;;;15.08;87.90;96601.47;5028397;28;20451;-65
2021/06/30 05:36:11;;;;;;;0.50;0.30;;;;;;;15.35;86.47;96595.47;5027033;28;20195;-63
2021/06/30 05:38:36;;;;;;;0.40;0.20;;;;;;;15.33;86.01;96595.09;5026397;28;20064;-64
2021/06/30 05:41:02;;;;;;;0.52;0.35;;;;;;;15.38;86.29;96600.19;5025588;28;20049;-63
2021/06/30 05:43:29;;;;;;;1.05;0.30;;;;;;;15.15;84.72;96603.44;5026799;28;20513;-64
2021/06/30 05:45:55;;;;;;;0.68;0.30;;;;;;;15.02;84.46;96603.84;5021984;28;20045;-63
2021/06/30 05:48:20;;;;;;;0.63;0.30;;;;;;;14.71;84.93;96597.22;5027744;28;20048;-62
2021/06/30 05:50:46;;;;;;;0.30;0.30;;;;;;;14.41;86.42;96603.91;5029298;28;20457;-62
2021/06/30 05:53:11;;;;;;;1.40;0.80;;;;;;;13.96;88.81;96603.50;5027176;28;20102;-62
2021/06/30 05:55:37;;;;;;;2.15;1.08;;;;;;;14.07;90.40;96601.53;5032994;28;20091;-64
2021/06/30 05:58:03;;;;;;;2.20;0.95;;;;;;;14.23;89.35;96601.16;5024749;28;20445;-63
2021/06/30 06:00:29;;;;;;;1.42;0.40;;;;;;;14.30;88.35;96597.63;5013276;28;20041;-63
2021/06/30 06:02:54;;;;;;;0.55;0.30;;;;;;;14.51;88.39;96594.06;5032128;28;20052;-65
2021/06/30 06:05:20;;;;;;;1.05;0.30;;;;;;;14.84;87.46;96595.63;5027877;28;20041;-64
2021/06/30 06:07:45;;;;;;;0.52;0.40;;;;;;;16.21;80.70;96592.25;5042006;28;20037;-64
2021/06/30 06:10:12;;;;;;;0.73;0.32;;;;;;;18.16;70.60;96583.34;5038112;28;20045;-65
2021/06/30 06:12:38;;;;;;;0.60;0.20;;;;;;;20.58;59.05;96585.66;5045222;28;20430;-63
2021/06/30 06:15:07;;;;;;;0.20;0.20;;;;;;;21.34;59.54;96578.94;5032213;28;20481;-66
2021/06/30 06:17:32;;;;;;;2.58;0.30;;;;;;;22.25;54.26;96581.41;5026512;28;20312;-65
2021/06/30 06:19:58;;;;;;;2.60;0.20;;;;;;;23.12;49.74;96584.16;5037451;28;20055;-64
2021/06/30 06:22:23;;;;;;;1.58;0.10;;;;;;;22.57;54.47;96579.59;5034859;28;20614;-64
2021/06/30 06:24:49;;;;;;;0.30;0.10;;;;;;;23.84;47.69;96580.34;5018539;28;20532;-64
2021/06/30 06:27:14;;;;;;;2.22;0.20;;;;;;;23.72;47.84;96575.59;5026245;28;20502;-65
2021/06/30 06:29:40;;;;;;;0.28;0.10;;;;;;;24.66;45.57;96580.34;5003386;28;20096;-64
2021/06/30 06:32:06;;;;;;;2.03;0.20;;;;;;;24.97;45.89;96574.63;5025680;28;20533;-66
2021/06/30 06:34:31;;;;;;;1.75;0.35;;;;;;;26.63;40.15;96577.06;5002582;28;20052;-65
2021/06/30 06:37:02;;;;;;;1.00;0.10;;;;;;;27.31;37.66;96580.50;5004126;28;20045;-65
2021/06/30 06:39:28;;;;;;;0.00;0.00;;;;;;;25.76;44.50;96571.13;5029711;28;20083;-64
2021/06/30 06:41:55;;;;;;;0.60;0.00;;;;;;;25.93;42.83;96572.38;5020174;28;20037;-65
2021/06/30 06:44:21;;;;;;;1.25;0.20;;;;;;;26.61;40.15;96584.41;5015202;28;20136;-64
2021/06/30 06:46:47;;;;;;;1.85;0.20;;;;;;;23.34;48.84;96578.59;5023402;28;20053;-64
2021/06/30 06:49:12;;;;;;;0.20;0.10;;;;;;;21.31;52.57;96579.81;5023308;28;20045;-65
2021/06/30 06:51:39;;;;;;;1.02;0.10;;;;;;;20.42;55.62;96584.47;5027053;28;20045;-64
2021/06/30 06:54:06;;;;;;;2.45;0.20;;;;;;;20.48;55.88;96576.38;5025844;28;20041;-63
2021/06/30 06:56:32;;;;;;;0.32;0.13;;;;;;;20.14;55.51;96583.16;5020740;28;20065;-63
2021/06/30 06:58:58;;;;;;;0.65;0.20;;;;;;;19.36;58.12;96577.31;5018911;28;20037;-63
2021/06/30 07:01:24;;;;;;;0.20;0.20;;;;;;;18.88;59.52;96582.94;5019734;28;20515;-63
2021/06/30 07:03:50;;;;;;;0.30;0.20;;;;;;;19.25;59.66;96583.84;5025684;28;20058;-63
2021/06/30 07:06:16;;;;;;;1.85;0.20;;;;;;;18.60;62.31;96587.00;5008963;28;20033;-63
2021/06/30 07:08:42;;;;;;;0.20;0.10;;;;;;;18.13;62.07;96590.53;5023813;28;20048;-63
2021/06/30 07:11:09;;;;;;;2.72;0.32;;;;;;;18.06;63.46;96596.19;5016294;28;20409;-63
2021/06/30 07:13:35;;;;;;;10.32;1.58;;;;;;;18.10;62.78;96590.56;5040589;28;20040;-63
2021/06/30 07:16:01;;;;;;;0.52;0.40;;;;;;;17.58;65.71;96595.22;5018840;28;20045;-63
2021/06/30 07:18:26;;;;;;;4.45;1.00;;;;;;;17.46;66.06;96589.44;5014816;28;20040;-63
2021/06/30 07:20:52;;;;;;;1.27;0.50;;;;;;;17.22;67.21;96594.09;5020133;28;20049;-62
2021/06/30 07:23:17;;;;;;;2.67;0.70;;;;;;;16.94;68.26;96595.97;5014403;28;20562;-64
2021/06/30 07:25:43;;;;;;;0.32;0.32;;;;;;;16.66;70.11;96600.56;5023500;28;20037;-64
2021/06/30 07:28:09;;;;;;;1.42;0.40;;;;;;;16.47;72.22;96606.66;5025028;28;20449;-64
2021/06/30 07:30:35;;;;;;;0.65;0.32;;;;;;;16.68;69.58;96602.91;5022319;28;20052;-64
2021/06/30 07:33:01;;;;;;;3.63;0.68;;;;;;;16.58;70.25;96599.03;5023613;28;20037;-65
2021/06/30 07:35:26;;;;;;;0.60;0.40;;;;;;;16.91;71.07;96605.88;5000230;28;20111;-63
2021/06/30 07:37:52;;;;;;;4.68;2.17;;;;;;;17.33;69.74;96603.03;5041023;28;20076;-64
2021/06/30 07:40:18;;;;;;;1.50;0.75;;;;;;;18.05;65.97;96608.44;5037155;28;20037;-63
2021/06/30 07:42:44;;;;;;;2.88;1.08;;;;;;;18.19;63.25;96607.47;5043260;28;20041;-64
2021/06/30 07:45:10;;;;;;;3.85;0.60;;;;;;;18.60;64.28;96606.41;5020384;28;20110;-62
2021/06/30 07:47:36;;;;;;;4.97;0.82;;;;;;;19.03;63.84;96605.69;5040682;28;20037;-64
2021/06/30 07:50:04;;;;;;;2.75;0.70;;;;;;;18.39;62.33;96602.00;5019809;28;20033;-64
2021/06/30 07:52:29;;;;;;;0.82;0.45;;;;;;;19.72;57.01;96596.00;5022526;28;20045;-63
2021/06/30 07:57:30;;;;;;;0.32;0.30;;;;;;;20.03;57.53;96604.88;5223353;22;20095;-64
2021/06/30 07:59:56;;;;;;;0.35;0.20;;;;;;;19.19;58.74;96595.88;4997587;28;1061633;-63
2021/06/30 08:02:21;;;;;;;2.40;0.40;;;;;;;18.42;61.39;96601.16;5036063;28;20623;-63
2021/06/30 08:04:46;;;;;;;1.25;0.40;;;;;;;18.23;62.76;96608.19;5040912;28;20045;-62
2021/06/30 08:07:12;;;;;;;1.05;0.47;;;;;;;17.88;62.95;96606.72;5030453;28;20413;-63
2021/06/30 08:09:37;;;;;;;0.88;0.30;;;;;;;17.67;63.07;96602.22;5037295;28;20061;-65
2021/06/30 08:12:08;;;;;;;0.70;0.32;;;;;;;17.84;63.86;96595.66;5038052;28;20049;-64
2021/06/30 08:14:34;;;;;;;3.20;0.47;;;;;;;17.98;64.40;96602.22;5037067;28;20094;-63
2021/06/30 08:17:00;;;;;;;1.05;0.32;;;;;;;17.97;63.17;96607.00;5033758;28;21144;-63
2021/06/30 08:19:25;;;;;;;1.38;0.30;;;;;;;18.10;63.17;96605.22;5034126;28;20080;-63
2021/06/30 08:21:51;;;;;;;0.88;0.32;;;;;;;18.15;62.47;96612.28;5041318;28;20095;-63
2021/06/30 08:24:17;;;;;;;1.35;0.30;;;;;;;17.49;63.33;96603.25;5034359;28;20049;-64
2021/06/30 08:26:43;;;;;;;0.60;0.40;;;;;;;17.40;64.39;96608.50;5039059;28;20045;-64
2021/06/30 08:29:08;;;;;;;1.00;0.40;;;;;;;17.08;64.52;96608.88;5032762;28;20041;-66
2021/06/30 08:31:34;;;;;;;0.47;0.30;;;;;;;17.24;65.00;96605.53;5040759;28;20052;-64
2021/06/30 08:33:59;;;;;;;0.22;0.20;;;;;;;17.68;63.70;96601.03;5040644;28;20033;-64
2021/06/30 08:36:25;;;;;;;3.13;0.40;;;;;;;18.14;62.51;96608.72;5032077;28;20052;-64
2021/06/30 08:38:50;;;;;;;5.70;0.30;;;;;;;18.31;62.77;96598.56;5039924;28;20118;-63
2021/06/30 08:41:20;;;;;;;0.68;0.30;;;;;;;18.58;62.02;96605.25;5035085;28;20041;-64
2021/06/30 08:43:46;;;;;;;0.52;0.30;;;;;;;18.71;61.71;96595.13;5037459;28;20045;-63
2021/06/30 08:46:17;;;;;;;0.95;0.40;;;;;;;19.45;60.20;96599.72;5035016;28;20139;-64
2021/06/30 08:48:43;;;;;;;1.77;0.30;;;;;;;18.96;58.67;96591.94;5037859;28;20040;-64
2021/06/30 08:51:11;;;;;;;0.98;0.30;;;;;;;18.98;58.66;96599.81;5032044;28;20038;-68
2021/06/30 08:53:40;;;;;;;1.65;0.32;;;;;;;18.78;58.48;96595.00;5034662;28;20037;-64
2021/06/30 08:56:07;;;;;;;0.52;0.32;;;;;;;19.01;57.42;96596.97;5030896;28;20048;-65
2021/06/30 08:58:33;;;;;;;0.77;0.32;;;;;;;19.36;56.97;96589.19;5040003;28;20037;-64
2021/06/30 09:00:59;;;;;;;2.45;0.35;;;;;;;19.60;57.46;96591.88;5039253;28;20073;-63
2021/06/30 09:03:25;;;;;;;0.85;0.30;;;;;;;20.05;56.64;96586.53;5034355;28;20118;-63
2021/06/30 09:08:43;;;;;;;0.50;0.30;;;;;;;20.18;56.45;96594.19;5030471;28;20056;-63
2021/06/30 09:11:12;;;;;;;1.48;0.28;;;;;;;19.47;56.50;96591.75;5034267;28;20076;-62
2021/06/30 09:13:38;;;;;;;;;;;;;;;19.01;57.37;96594.19;5037328;28;20033;-64
2021/06/30 09:16:04;;;;;;;0.20;0.20;;;;;;;19.12;56.87;96596.78;5019659;28;19947;-63
2021/06/30 09:18:36;;;;;;;5.05;0.60;;;;;;;19.49;57.55;96597.66;5021535;28;20048;-65
2021/06/30 09:21:20;;;;;;;0.50;0.30;;;;;;;19.75;55.38;96595.94;5036798;28;20045;-64
2021/06/30 09:24:12;;;;;;;0.90;0.28;;;;;;;19.83;54.41;96594.56;5038046;28;20414;-63
2021/06/30 09:26:57;;;;;;;0.80;0.30;;;;;;;20.38;52.96;96592.13;5034342;28;20041;-63
2021/06/30 09:29:23;;;;;;;0.25;0.20;;;;;;;20.64;53.30;96592.31;5050155;28;20048;-61
2021/06/30 09:31:51;;;;;;;0.55;0.30;;;;;;;20.12;53.34;96590.38;5046366;28;20055;-62
2021/06/30 09:34:22;;;;;;;1.08;0.20;;;;;;;19.72;54.97;96593.22;5035195;28;20507;-63
2021/06/30 09:36:53;;;;;;;1.77;0.40;;;;;;;20.09;53.30;96592.00;5038740;28;20181;-64
2021/06/30 09:39:20;;;;;;;1.20;0.52;;;;;;;20.22;51.88;96597.66;5034818;28;20108;-63
2021/06/30 09:41:46;;;;;;;0.28;0.28;;;;;;;20.65;51.91;96593.09;5037462;28;20470;-63
2021/06/30 09:44:18;;;;;;;1.05;0.20;;;;;;;21.32;51.12;96593.31;5036870;28;20072;-63
2021/06/30 09:46:44;;;;;;;1.25;0.30;;;;;;;20.73;52.13;96580.56;5036111;28;20106;-63
2021/06/30 09:49:11;;;;;;;3.50;0.38;;;;;;;20.04;52.21;96587.75;5031530;28;20036;-64
2021/06/30 09:51:38;;;;;;;0.70;0.30;;;;;;;20.17;50.96;96593.41;5037243;28;20508;-63
2021/06/30 09:54:05;;;;;;;0.80;0.40;;;;;;;20.35;52.19;96592.22;5037004;28;20053;-62
2021/06/30 09:56:38;;;;;;;2.60;0.30;;;;;;;20.18;52.15;96594.19;5039500;28;20048;-64
2021/06/30 09:59:09;;;;;;;0.30;0.20;;;;;;;20.21;52.48;96596.13;5044175;28;20097;-65
2021/06/30 10:01:36;;;;;;;0.68;0.40;;;;;;;19.32;52.85;96588.47;5047100;28;20052;-64
2021/06/30 10:04:02;;;;;;;0.30;0.30;;;;;;;19.47;54.43;96589.75;5038047;28;20129;-63
2021/06/30 10:06:33;;;;;;;1.17;0.30;;;;;;;19.24;53.67;96585.03;5022951;28;20040;-63
2021/06/30 10:09:00;;;;;;;1.15;0.20;;;;;;;19.48;53.89;96587.75;5034846;28;20044;-63
2021/06/30 10:11:30;;;;;;;0.73;0.20;;;;;;;20.36;52.73;96577.84;5036133;28;20071;-63
2021/06/30 10:13:56;;;;;;;3.05;0.30;;;;;;;20.37;51.67;96579.44;5040637;28;20073;-63
2021/06/30 10:16:23;;;;;;;1.85;0.50;;;;;;;20.14;52.56;96579.59;5033341;28;20055;-64
2021/06/30 10:18:51;;;;;;;0.40;0.20;;;;;;;20.05;52.49;96582.97;5032461;28;20086;-64
2021/06/30 10:21:23;;;;;;;1.25;0.30;;;;;;;20.31;51.88;96583.16;5031625;28;20056;-62
2021/06/30 10:23:49;;;;;;;0.60;0.30;;;;;;;19.80;53.39;96592.66;5040348;28;20161;-63
2021/06/30 10:26:16;;;;;;;0.45;0.30;;;;;;;19.71;53.05;96586.88;5033001;28;20385;-64
2021/06/30 10:28:45;;;;;;;0.30;0.30;;;;;;;20.30;51.19;96585.16;5040850;28;20125;-63
2021/06/30 10:31:11;;;;;;;0.87;0.27;;;;;;;19.73;52.11;96578.91;5031734;28;20047;-63
2021/06/30 10:33:41;;;;;;;1.58;0.50;;;;;;;20.12;52.93;96580.03;5039772;28;20041;-62
2021/06/30 10:36:09;;;;;;;1.08;0.45;;;;;;;19.57;53.19;96573.28;5034285;28;20091;-64
2021/06/30 10:38:48;;;;;;;1.23;0.50;;;;;;;18.72;55.07;96580.03;5039524;28;20074;-64
2021/06/30 10:41:36;;;;;;;0.73;0.28;;;;;;;18.64;55.41;96584.16;5034020;28;20053;-64
2021/06/30 10:44:10;;;;;;;0.35;0.28;;;;;;;18.39;55.89;96590.13;5036449;28;20045;-65
2021/06/30 10:46:36;;;;;;;1.20;0.22;;;;;;;18.22;58.21;96587.22;5034882;28;20044;-63
2021/06/30 10:49:13;;;;;;;0.60;0.38;;;;;;;18.32;58.70;96586.25;5040870;28;20136;-65
2021/06/30 10:51:43;;;;;;;0.85;0.30;;;;;;;18.19;58.83;96581.75;5043146;28;20045;-64
2021/06/30 10:54:38;;;;;;;0.93;0.32;;;;;;;18.23;60.10;96583.22;5037937;28;20095;-64
2021/06/30 10:57:24;;;;;;;3.50;0.40;;;;;;;18.54;61.11;96583.13;5041856;28;20053;-64
2021/06/30 11:00:03;;;;;;;0.45;0.30;;;;;;;18.73;62.81;96568.53;5034805;28;20175;-64
2021/06/30 11:02:32;;;;;;;1.65;0.57;;;;;;;19.27;59.52;96572.31;5036123;28;20051;-64
2021/06/30 11:05:17;;;;;;;0.40;0.30;;;;;;;19.47;57.57;96561.19;5039928;28;20068;-65
2021/06/30 11:07:44;;;;;;;1.73;0.40;;;;;;;20.22;54.90;96550.38;5042439;28;20076;-64
2021/06/30 11:10:16;;;;;;;3.45;0.50;;;;;;;20.24;53.20;96545.19;5034210;28;20037;-63
2021/06/30 11:12:58;;;;;;;0.75;0.20;;;;;;;19.61;53.40;96540.66;5038307;28;20521;-64
2021/06/30 11:15:36;;;;;;;0.77;0.20;;;;;;;19.36;54.79;96544.75;5034835;28;20785;-66
2021/06/30 11:18:24;;;;;;;0.50;0.20;;;;;;;18.75;55.61;96547.91;5044953;28;20045;-65
2021/06/30 11:20:52;;;;;;;1.45;0.30;;;;;;;18.60;56.82;96550.94;5042646;28;20110;-65
2021/06/30 11:23:25;;;;;;;0.40;0.30;;;;;;;18.17;61.30;96561.94;5038510;28;20052;-65
2021/06/30 11:25:54;;;;;;;6.03;1.25;;;;;;;18.21;67.45;96571.78;5043351;28;20044;-62
2021/06/30 11:28:37;;;;;;;2.83;0.40;;;;;;;17.12;73.47;96588.25;5036097;28;20044;-64
2021/06/30 11:31:31;;;;;;;1.83;0.50;;;;;;;16.74;76.75;96579.91;5042481;28;20049;-66
2021/06/30 11:34:11;;;;;;;1.08;0.30;;;;;;;15.90;79.41;96582.97;5043510;28;20037;-64
2021/06/30 11:36:41;;;;;;;1.35;0.52;;;;;;;16.03;76.50;96578.56;5039561;28;20159;-64
2021/06/30 11:39:08;;;;;;;1.30;0.38;;;;;;;15.94;80.53;96572.72;5037524;28;20044;-65